Time,TemperatureF,DewpointF,PressureIn,WindDirection,WindDirectionDegrees,WindSpeedMPH,WindSpeedGustMPH,Humidity,HourlyPrecipIn,Conditions,Clouds,dailyrainin,SolarRadiationWatts/m^2,SoftwareType,DateUTC
2013-06-23 00:01:00,65.0,63.0,30.01,ESE,119,3.0,7.0,93,0.00,,,0.04,0.000000,,2013-06-23 04:01:00,
2013-06-23 00:11:00,65.0,63.0,30.01,ESE,118,3.0,7.0,93,0.00,,,0.04,0.000000,,2013-06-23 04:11:00,
2013-06-23 00:21:00,65.0,63.0,30.01,ESE,118,3.0,7.0,93,0.00,,,0.04,0.000000,,2013-06-23 04:21:00,
2013-06-23 00:31:00,65.0,63.0,30.01,ESE,118,3.0,7.0,93,0.00,,,0.04,0.000000,,2013-06-23 04:31:00,
2013-06-23 00:42:00,65.0,63.0,30.01,ESE,118,3.0,7.0,93,0.00,,,0.04,0.000000,,2013-06-23 04:42:00,
2013-06-23 00:52:00,65.0,63.0,30.01,SE,132,5.0,9.0,93,0.00,,,0.04,0.000000,,2013-06-23 04:52:00,
2013-06-23 01:01:00,65.0,63.0,30.01,SE,132,5.0,9.0,93,0.00,,,0.04,0.000000,,2013-06-23 05:01:00,
2013-06-23 01:11:00,65.0,63.0,30.01,ESE,119,4.0,9.0,92,0.00,,,0.04,0.000000,,2013-06-23 05:11:00,
2013-06-23 01:22:00,64.0,62.0,30.00,ESE,109,0.0,5.0,93,0.00,,,0.04,0.000000,,2013-06-23 05:22:00,
2013-06-23 01:32:00,64.0,62.0,29.99,ESE,113,0.0,5.0,93,0.00,,,0.04,0.000000,,2013-06-23 05:32:00,
2013-06-23 01:41:00,64.0,62.0,29.98,East,101,0.0,1.0,94,0.00,,,0.04,0.000000,,2013-06-23 05:41:00,
2013-06-23 01:51:00,64.0,62.0,29.98,ESE,111,0.0,0.0,94,0.00,,,0.04,0.000000,,2013-06-23 05:51:00,
2013-06-23 02:02:00,64.0,62.0,29.98,ESE,117,3.0,5.0,94,0.00,,,0.04,0.000000,,2013-06-23 06:02:00,
2013-06-23 02:12:00,64.0,62.0,29.97,SE,128,4.0,7.0,94,0.00,,,0.04,0.000000,,2013-06-23 06:12:00,
2013-06-23 02:22:00,64.0,62.0,29.97,SE,137,5.0,10.0,93,0.00,,,0.03,0.000000,,2013-06-23 06:22:00,
2013-06-23 02:33:00,64.0,62.0,29.97,SE,141,7.0,11.0,93,0.00,,,0.03,0.000000,,2013-06-23 06:33:00,
2013-06-23 02:43:00,64.0,62.0,29.96,SE,137,5.0,10.0,93,0.00,,,0.03,0.000000,,2013-06-23 06:43:00,
2013-06-23 02:52:00,64.0,62.0,29.97,SE,135,4.0,8.0,93,0.00,,,0.03,0.000000,,2013-06-23 06:52:00,
2013-06-23 03:02:00,64.0,62.0,29.97,SE,146,2.0,7.0,94,0.00,,,0.03,0.000000,,2013-06-23 07:02:00,
2013-06-23 03:12:00,64.0,62.0,29.97,SE,138,5.0,9.0,93,0.00,,,0.03,0.000000,,2013-06-23 07:12:00,
2013-06-23 03:22:00,65.0,63.0,29.97,SE,143,4.0,6.0,93,0.00,,,0.03,0.000000,,2013-06-23 07:22:00,
2013-06-23 03:34:00,64.0,62.0,29.97,SE,142,4.0,10.0,93,0.00,,,0.03,0.000000,,2013-06-23 07:34:00,
2013-06-23 03:43:00,65.0,63.0,29.97,SE,142,0.0,5.0,93,0.00,,,0.03,0.000000,,2013-06-23 07:43:00,
2013-06-23 03:53:00,65.0,63.0,29.97,SE,134,0.0,0.0,93,0.00,,,0.03,0.000000,,2013-06-23 07:53:00,
2013-06-23 04:02:00,65.0,63.0,29.97,SE,134,0.0,1.0,93,0.00,,,0.03,0.000000,,2013-06-23 08:02:00,
2013-06-23 04:12:00,65.0,63.0,29.97,SE,138,3.0,5.0,93,0.00,,,0.03,0.000000,,2013-06-23 08:12:00,
2013-06-23 04:22:00,65.0,63.0,29.98,SSE,159,0.0,1.0,94,0.00,,,0.03,0.000000,,2013-06-23 08:22:00,
2013-06-23 04:34:00,65.0,63.0,29.98,SSE,166,0.0,4.0,94,0.00,,,0.03,0.000000,,2013-06-23 08:34:00,
2013-06-23 04:43:00,65.0,63.0,29.97,SE,139,0.0,0.0,93,0.00,,,0.03,0.000000,,2013-06-23 08:43:00,
2013-06-23 04:53:00,65.0,63.0,29.95,SE,142,5.0,7.0,93,0.00,,,0.03,0.000000,,2013-06-23 08:53:00,
2013-06-23 05:02:00,65.0,63.0,29.95,SE,140,4.0,7.0,93,0.00,,,0.03,0.000000,,2013-06-23 09:02:00,
2013-06-23 05:12:00,65.0,63.0,29.93,SSE,150,4.0,7.0,94,0.00,,,0.03,0.000000,,2013-06-23 09:12:00,
2013-06-23 05:22:00,65.0,63.0,29.92,SE,140,0.0,7.0,94,0.00,,,0.02,0.000000,,2013-06-23 09:22:00,
2013-06-23 05:34:00,65.0,63.0,29.92,SE,134,0.0,0.0,94,0.00,,,0.02,0.000000,,2013-06-23 09:34:00,
2013-06-23 05:43:00,65.0,63.0,29.93,SE,133,6.0,7.0,94,0.00,,,0.02,0.000000,,2013-06-23 09:43:00,
2013-06-23 05:53:00,65.0,63.0,29.93,SE,138,6.0,10.0,94,0.00,,,0.02,0.000000,,2013-06-23 09:53:00,
2013-06-23 06:02:00,65.0,63.0,29.93,SE,138,6.0,10.0,94,0.00,,,0.02,0.000000,,2013-06-23 10:02:00,
2013-06-23 06:11:00,66.0,64.0,29.92,SE,137,7.0,9.0,94,0.00,,,0.02,0.000000,,2013-06-23 10:11:00,
2013-06-23 06:22:00,66.0,64.0,29.91,SE,124,5.0,9.0,94,0.00,,,0.02,11.000000,,2013-06-23 10:22:00,
2013-06-23 06:34:00,66.0,64.0,29.91,SE,140,5.0,9.0,94,0.00,,,0.02,11.000000,,2013-06-23 10:34:00,
2013-06-23 06:43:00,67.0,65.0,29.92,SE,134,6.0,9.0,94,0.00,,,0.02,14.000000,,2013-06-23 10:43:00,
2013-06-23 06:53:00,67.0,65.0,29.91,SE,140,6.0,8.0,93,0.00,,,0.02,11.000000,,2013-06-23 10:53:00,
2013-06-23 07:01:00,67.0,65.0,29.91,SE,139,5.0,7.0,93,0.00,,,0.02,18.000000,,2013-06-23 11:01:00,
2013-06-23 07:11:00,67.0,65.0,29.92,ESE,119,5.0,8.0,94,0.00,,,0.02,25.000000,,2013-06-23 11:11:00,
2013-06-23 07:22:00,67.0,65.0,29.91,SE,127,5.0,9.0,94,0.00,,,0.02,32.000000,,2013-06-23 11:22:00,
2013-06-23 07:33:00,67.0,65.0,29.91,SE,135,3.0,7.0,94,0.00,,,0.02,54.000000,,2013-06-23 11:33:00,
2013-06-23 07:43:00,68.0,66.0,29.91,SE,136,2.0,4.0,94,0.00,,,0.02,165.000000,,2013-06-23 11:43:00,
2013-06-23 07:53:00,68.0,66.0,29.93,ESE,121,0.0,3.0,93,0.00,,,0.02,200.000000,,2013-06-23 11:53:00,
2013-06-23 08:01:00,70.0,68.0,29.93,ESE,121,0.0,0.0,92,0.00,,,0.02,206.000000,,2013-06-23 12:01:00,
2013-06-23 08:12:00,70.0,67.0,29.93,SSE,155,0.0,0.0,90,0.00,,,0.02,244.000000,,2013-06-23 12:12:00,
2013-06-23 08:22:00,71.0,68.0,29.92,South,169,0.0,0.0,90,0.00,,,0.02,214.000000,,2013-06-23 12:22:00,
2013-06-23 08:33:00,71.0,68.0,29.92,South,177,0.0,5.0,89,0.00,,,0.02,192.000000,,2013-06-23 12:33:00,
2013-06-23 08:42:00,72.0,68.0,29.93,SSW,207,3.0,6.0,88,0.00,,,0.02,81.000000,,2013-06-23 12:42:00,
2013-06-23 08:53:00,71.0,67.0,29.94,SW,217,4.0,8.0,88,0.00,,,0.02,51.000000,,2013-06-23 12:53:00,
2013-06-23 09:02:00,71.0,68.0,29.94,WSW,241,4.0,11.0,89,0.00,,,0.02,56.000000,,2013-06-23 13:02:00,
2013-06-23 09:23:00,71.0,68.0,29.94,SSW,209,4.0,11.0,89,0.00,,,0.02,190.000000,,2013-06-23 13:23:00,
2013-06-23 09:34:00,71.0,68.0,29.94,SW,234,2.0,9.0,89,0.00,,,0.02,193.000000,,2013-06-23 13:34:00,
2013-06-23 09:43:00,72.0,70.0,29.94,WSW,237,5.0,13.0,92,0.00,,,0.02,274.000000,,2013-06-23 13:43:00,
2013-06-23 09:53:00,69.0,68.0,29.94,SSW,194,5.0,15.0,95,0.00,,,0.02,214.000000,,2013-06-23 13:53:00,
2013-06-23 10:04:00,68.0,67.0,29.94,SW,220,7.0,15.0,97,0.00,,,0.02,169.000000,,2013-06-23 14:04:00,
2013-06-23 10:11:00,64.0,63.0,29.95,WNW,290,11.0,16.0,97,0.01,,,0.03,100.000000,,2013-06-23 14:11:00,
2013-06-23 10:22:00,63.0,62.0,29.96,West,277,7.0,15.0,98,0.01,,,0.03,149.000000,,2013-06-23 14:22:00,
2013-06-23 10:34:00,62.0,61.0,29.96,WNW,284,12.0,16.0,98,0.01,,,0.03,278.000000,,2013-06-23 14:34:00,
2013-06-23 10:44:00,63.0,62.0,29.96,NW,321,0.0,12.0,98,0.01,,,0.03,747.000000,,2013-06-23 14:44:00,
2013-06-23 10:52:00,64.0,64.0,29.96,NW,325,5.0,10.0,99,0.01,,,0.03,443.000000,,2013-06-23 14:52:00,
2013-06-23 11:05:00,63.0,63.0,29.96,WNW,297,3.0,7.0,99,0.01,,,0.03,501.000000,,2013-06-23 15:05:00,
2013-06-23 11:23:00,63.0,63.0,29.97,NW,313,4.0,9.0,99,0.00,,,0.03,606.000000,,2013-06-23 15:23:00,
2013-06-23 11:35:00,62.0,62.0,29.97,WNW,303,7.0,12.0,99,0.00,,,0.03,345.000000,,2013-06-23 15:35:00,
2013-06-23 11:43:00,62.0,62.0,29.97,NW,317,1.0,11.0,99,0.00,,,0.03,308.000000,,2013-06-23 15:43:00,
2013-06-23 11:52:00,63.0,63.0,29.97,NNW,348,2.0,7.0,99,0.00,,,0.03,575.000000,,2013-06-23 15:52:00,
2013-06-23 12:12:00,65.0,65.0,29.97,WNW,287,1.0,6.0,99,0.00,,,0.03,545.000000,,2013-06-23 16:12:00,
2013-06-23 12:22:00,67.0,67.0,29.97,West,270,0.0,7.0,99,0.00,,,0.03,701.000000,,2013-06-23 16:22:00,
2013-06-23 12:36:00,68.0,68.0,29.97,SW,220,5.0,11.0,99,0.00,,,0.03,508.000000,,2013-06-23 16:36:00,
2013-06-23 12:43:00,70.0,70.0,29.96,SW,216,6.0,16.0,99,0.00,,,0.03,332.000000,,2013-06-23 16:43:00,
2013-06-23 12:53:00,69.0,69.0,29.96,SSW,211,14.0,17.0,99,0.00,,,0.03,246.000000,,2013-06-23 16:53:00,
2013-06-23 13:05:00,69.0,69.0,29.96,SW,222,8.0,18.0,99,0.00,,,0.03,262.000000,,2013-06-23 17:05:00,
2013-06-23 13:12:00,69.0,69.0,29.96,SW,223,2.0,16.0,99,0.00,,,0.03,257.000000,,2013-06-23 17:12:00,
2013-06-23 13:22:00,69.0,69.0,29.96,SSW,208,7.0,16.0,99,0.00,,,0.03,244.000000,,2013-06-23 17:22:00,
2013-06-23 13:33:00,70.0,70.0,29.97,SSW,202,3.0,11.0,99,0.00,,,0.03,353.000000,,2013-06-23 17:33:00,
2013-06-23 13:43:00,71.0,71.0,29.96,SSW,203,10.0,15.0,99,0.00,,,0.03,461.000000,,2013-06-23 17:43:00,
2013-06-23 13:53:00,72.0,71.0,29.95,SW,219,8.0,14.0,97,0.00,,,0.03,568.000000,,2013-06-23 17:53:00,
2013-06-23 14:01:00,76.0,72.0,29.96,SSW,198,10.0,16.0,86,0.00,,,0.03,911.000000,,2013-06-23 18:01:00,
2013-06-23 14:12:00,77.0,70.0,29.96,West,259,9.0,13.0,78,0.00,,,0.03,884.000000,,2013-06-23 18:12:00,
2013-06-23 14:22:00,76.0,68.0,29.95,NNW,332,3.0,10.0,77,0.00,,,0.03,891.000000,,2013-06-23 18:22:00,
2013-06-23 14:34:00,76.0,69.0,29.95,WSW,245,2.0,11.0,79,0.00,,,0.03,891.000000,,2013-06-23 18:34:00,
2013-06-23 14:42:00,80.0,70.0,29.94,SW,219,6.0,18.0,72,0.00,,,0.03,863.000000,,2013-06-23 18:42:00,
2013-06-23 14:53:00,81.0,69.0,29.94,SW,233,12.0,18.0,67,0.00,,,0.03,914.000000,,2013-06-23 18:53:00,
2013-06-23 15:01:00,81.0,69.0,29.94,SW,226,9.0,15.0,68,0.00,,,0.03,835.000000,,2013-06-23 19:01:00,
2013-06-23 15:11:00,81.0,69.0,29.93,SW,217,10.0,14.0,66,0.00,,,0.03,835.000000,,2013-06-23 19:11:00,
2013-06-23 15:21:00,81.0,69.0,29.93,SSW,202,10.0,18.0,67,0.00,,,0.03,814.000000,,2013-06-23 19:21:00,
2013-06-23 15:32:00,83.0,70.0,29.93,SSW,209,12.0,21.0,64,0.00,,,0.03,821.000000,,2013-06-23 19:32:00,
2013-06-23 15:43:00,83.0,70.0,29.93,SSW,205,9.0,18.0,65,0.00,,,0.03,796.000000,,2013-06-23 19:43:00,
2013-06-23 15:53:00,83.0,69.0,29.92,South,185,12.0,21.0,63,0.00,,,0.03,786.000000,,2013-06-23 19:53:00,
2013-06-23 16:02:00,84.0,69.0,29.92,SSW,213,9.0,19.0,61,0.00,,,0.03,768.000000,,2013-06-23 20:02:00,
2013-06-23 16:12:00,84.0,69.0,29.92,SW,216,13.0,21.0,61,0.00,,,0.03,777.000000,,2013-06-23 20:12:00,
2013-06-23 16:24:00,85.0,70.0,29.92,SSW,209,9.0,19.0,61,0.00,,,0.02,759.000000,,2013-06-23 20:24:00,
2013-06-23 16:33:00,85.0,70.0,29.92,SSW,213,10.0,17.0,61,0.00,,,0.02,731.000000,,2013-06-23 20:33:00,
2013-06-23 16:42:00,85.0,69.0,29.91,SW,228,10.0,18.0,59,0.00,,,0.02,701.000000,,2013-06-23 20:42:00,
2013-06-23 16:53:00,86.0,70.0,29.90,SSW,207,7.0,15.0,59,0.00,,,0.02,691.000000,,2013-06-23 20:53:00,
2013-06-23 17:01:00,86.0,68.0,29.90,SSW,212,14.0,19.0,56,0.00,,,0.02,680.000000,,2013-06-23 21:01:00,
2013-06-23 17:11:00,86.0,68.0,29.89,SW,214,12.0,18.0,56,0.00,,,0.02,659.000000,,2013-06-23 21:11:00,
2013-06-23 17:22:00,86.0,69.0,29.89,SSW,202,2.0,18.0,57,0.00,,,0.01,631.000000,,2013-06-23 21:22:00,
2013-06-23 17:34:00,87.0,69.0,29.89,SW,216,12.0,17.0,56,0.00,,,0.01,610.000000,,2013-06-23 21:34:00,
2013-06-23 17:44:00,87.0,69.0,29.88,SW,227,6.0,16.0,56,0.00,,,0.01,580.000000,,2013-06-23 21:44:00,
2013-06-23 17:52:00,86.0,68.0,29.88,South,179,11.0,21.0,55,0.00,,,0.01,461.000000,,2013-06-23 21:52:00,
2013-06-23 18:01:00,86.0,69.0,29.88,SW,223,8.0,15.0,57,0.00,,,0.01,540.000000,,2013-06-23 22:01:00,
2013-06-23 18:12:00,87.0,70.0,29.87,SW,235,11.0,18.0,57,0.00,,,0.01,492.000000,,2013-06-23 22:12:00,
2013-06-23 18:22:00,86.0,69.0,29.86,SSW,208,6.0,17.0,58,0.00,,,0.01,475.000000,,2013-06-23 22:22:00,
2013-06-23 18:32:00,87.0,71.0,29.86,SSW,206,7.0,16.0,59,0.00,,,0.01,425.000000,,2013-06-23 22:32:00,
2013-06-23 18:43:00,87.0,71.0,29.86,SSE,157,5.0,17.0,59,0.00,,,0.01,334.000000,,2013-06-23 22:43:00,
2013-06-23 18:53:00,86.0,71.0,29.85,SSW,196,7.0,17.0,61,0.00,,,0.01,306.000000,,2013-06-23 22:53:00,
2013-06-23 19:01:00,86.0,71.0,29.85,SSW,196,6.0,13.0,62,0.00,,,0.01,357.000000,,2013-06-23 23:01:00,
2013-06-23 19:11:00,86.0,71.0,29.85,SSW,194,5.0,13.0,62,0.00,,,0.01,257.000000,,2013-06-23 23:11:00,
2013-06-23 19:22:00,86.0,71.0,29.85,South,189,4.0,14.0,62,0.00,,,0.01,244.000000,,2013-06-23 23:22:00,
2013-06-23 19:33:00,85.0,71.0,29.85,SSW,196,5.0,13.0,63,0.00,,,0.01,232.000000,,2013-06-23 23:33:00,
2013-06-23 19:44:00,85.0,71.0,29.85,SSW,211,1.0,12.0,63,0.00,,,0.01,241.000000,,2013-06-23 23:44:00,
2013-06-23 19:52:00,86.0,72.0,29.85,SSW,200,5.0,11.0,64,0.00,,,0.01,195.000000,,2013-06-23 23:52:00,
2013-06-23 20:01:00,85.0,71.0,29.85,SSW,194,0.0,13.0,64,0.00,,,0.01,151.000000,,2013-06-24 00:01:00,
2013-06-23 20:11:00,85.0,71.0,29.85,South,187,3.0,13.0,64,0.00,,,0.01,128.000000,,2013-06-24 00:11:00,
2013-06-23 20:22:00,84.0,71.0,29.86,SSW,196,0.0,12.0,65,0.00,,,0.01,134.000000,,2013-06-24 00:22:00,
2013-06-23 20:33:00,84.0,71.0,29.86,SW,220,0.0,14.0,66,0.00,,,0.01,109.000000,,2013-06-24 00:33:00,
2013-06-23 20:42:00,84.0,71.0,29.86,SW,222,0.0,16.0,66,0.00,,,0.01,84.000000,,2013-06-24 00:42:00,
2013-06-23 20:52:00,84.0,72.0,29.86,WSW,253,2.0,14.0,67,0.00,,,0.01,54.000000,,2013-06-24 00:52:00,
2013-06-23 21:02:00,83.0,71.0,29.86,WSW,237,5.0,14.0,68,0.00,,,0.01,42.000000,,2013-06-24 01:02:00,
2013-06-23 21:11:00,83.0,71.0,29.87,SSW,211,2.0,13.0,68,0.00,,,0.01,28.000000,,2013-06-24 01:11:00,
2013-06-23 21:22:00,82.0,71.0,29.87,SW,234,5.0,12.0,69,0.00,,,0.01,21.000000,,2013-06-24 01:22:00,
2013-06-23 21:32:00,80.0,68.0,29.87,NW,317,9.0,15.0,66,0.00,,,0.01,12.000000,,2013-06-24 01:32:00,
2013-06-23 23:22:00,68.0,65.0,29.90,SSW,209,0.0,0.0,89,0.00,,,0.01,0.000000,,2013-06-24 03:22:00,
2013-06-23 23:33:00,69.0,66.0,29.90,South,186,0.0,0.0,91,0.00,,,0.01,0.000000,,2013-06-24 03:33:00,
2013-06-23 23:43:00,72.0,68.0,29.89,SSW,192,3.0,10.0,86,0.00,,,0.01,0.000000,,2013-06-24 03:43:00,
2013-06-23 23:53:00,74.0,68.0,29.89,South,187,5.0,12.0,81,0.00,,,0.01,0.000000,,2013-06-24 03:53:00,